This is the latest recevied weather packets stored in our database for station/object KC5DP. If no packets are shown the sender has not sent any weather packets the latest 10 day(s).
| Time | Temp. | Humidity | Pressure | Rain* | Wind** | Luminosity | Snow |
|---|---|---|---|---|---|---|---|
| 1778008877 | 27.78° C | 65% | 1011.1 hPa | 0 mm | - | 339 W/m² | - |
| 1778008576 | 27.78° C | 65% | 1010.9 hPa | 0 mm | - | 294 W/m² | - |
| 1778008273 | 27.78° C | 66% | 1011 hPa | 0 mm | - | 523 W/m² | - |
| 1778007969 | 27.22° C | 65% | 1010.9 hPa | 0 mm | - | 266 W/m² | - |
| 1778007664 | 27.22° C | 67% | 1011 hPa | 0 mm | - | 294 W/m² | - |
| 1778007361 | 27.22° C | 66% | 1011 hPa | 0 mm | - | 237 W/m² | - |
| 1778007057 | 27.22° C | 65% | 1011.2 hPa | 0 mm | - | 401 W/m² | - |
| 1778006754 | 27.22° C | 65% | 1011.2 hPa | 0 mm | - | 401 W/m² | - |
| 1778006451 | 27.22° C | 64% | 1011 hPa | 0 mm | - | 477 W/m² | - |
| 1778006147 | 27.22° C | 65% | 1011.3 hPa | 0 mm | - | 397 W/m² | - |
| 1778005845 | 27.78° C | 63% | 1011.3 hPa | 0 mm | - | 252 W/m² | - |
| 1778005541 | 27.78° C | 62% | 1011.4 hPa | 0 mm | - | 539 W/m² | - |
| 1778005238 | 27.78° C | 63% | 1011.6 hPa | 0 mm | - | 261 W/m² | - |
| 1778004935 | 27.78° C | 62% | 1011.4 hPa | 0 mm | - | 263 W/m² | - |
| 1778004632 | 27.78° C | 63% | 1011.5 hPa | 0 mm | - | 811 W/m² | - |
| 1778004328 | 27.78° C | 64% | 1011.6 hPa | 0 mm | - | 488 W/m² | - |
| 1778004027 | 27.22° C | 65% | 1011.8 hPa | 0 mm | - | 360 W/m² | - |
| 1778003726 | 27.78° C | 64% | 1011.7 hPa | 0 mm | - | 677 W/m² | - |
| 1778003423 | 27.22° C | 65% | 1011.8 hPa | 0 mm | - | 425 W/m² | - |
| 1778003120 | 27.78° C | 65% | 1011.8 hPa | 0 mm | - | 681 W/m² | - |
| 1778002816 | 26.67° C | 66% | 1011.8 hPa | 0 mm | - | 646 W/m² | - |
| 1778002513 | 26.67° C | 65% | 1012 hPa | 0 mm | - | 958 W/m² | - |
| 1778002210 | 27.78° C | 62% | 1011.9 hPa | 0 mm | - | 374 W/m² | - |
| 1778001909 | 26.67° C | 66% | 1012 hPa | 0 mm | - | 903 W/m² | - |
| 1778001609 | 27.22° C | 64% | 1012.1 hPa | 0 mm | - | 887 W/m² | - |
* Rain latest hour (hover to see other rain measurements)
** Current wind speed in m/s (hover to see current wind gust speed)